createdAt,value
2022-08-08T00:00:55.847Z,0.98
2022-08-08T00:03:20.240Z,1.42
2022-08-08T00:06:03.259Z,1.10
2022-08-08T00:08:36.922Z,0.95
2022-08-08T00:11:57.883Z,1.10
2022-08-08T00:14:59.818Z,0.70
2022-08-08T00:17:58.571Z,0.70
2022-08-08T00:20:53.119Z,0.85
2022-08-08T00:23:43.403Z,1.05
2022-08-08T00:26:26.249Z,1.00
2022-08-08T00:29:46.434Z,0.75
2022-08-08T00:32:20.427Z,1.05
2022-08-08T00:35:16.652Z,1.20
2022-08-08T00:38:03.233Z,0.90
2022-08-08T00:41:12.598Z,0.77
2022-08-08T00:43:40.545Z,0.80
2022-08-08T00:46:56.144Z,0.93
2022-08-08T00:49:33.221Z,0.90
2022-08-08T00:52:38.921Z,0.95
2022-08-08T00:55:10.835Z,0.70
2022-08-08T00:58:20.726Z,0.60
2022-08-08T01:01:01.792Z,0.88
2022-08-08T01:04:06.601Z,0.82
2022-08-08T01:07:11.620Z,0.80
2022-08-08T01:09:53.213Z,0.70
2022-08-08T01:12:29.383Z,0.88
2022-08-08T01:15:37.043Z,0.60
2022-08-08T01:18:53.396Z,0.75
2022-08-08T01:24:54.362Z,0.70
2022-08-08T01:27:44.705Z,0.60
2022-08-08T01:30:31.726Z,0.70
2022-08-08T01:33:01.129Z,0.88
2022-08-08T01:35:47.875Z,0.60
2022-08-08T01:38:38.606Z,0.80
2022-08-08T01:41:18.658Z,0.90
2022-08-08T01:43:53.440Z,0.70
2022-08-08T01:46:42.610Z,0.80
2022-08-08T01:49:37.921Z,0.70
2022-08-08T01:53:54.293Z,0.80
2022-08-08T01:56:27.381Z,0.85
2022-08-08T01:59:09.454Z,0.90
2022-08-08T02:02:34.251Z,1.13
2022-08-08T02:05:23.342Z,0.93
2022-08-08T02:08:16.264Z,0.85
2022-08-08T02:11:23.038Z,1.00
2022-08-08T02:14:07.565Z,0.70
2022-08-08T02:16:56.000Z,0.90
2022-08-08T02:19:57.624Z,0.65
2022-08-08T02:22:32.654Z,1.00
2022-08-08T02:25:20.458Z,0.80
2022-08-08T02:28:05.949Z,0.87
2022-08-08T02:31:43.299Z,0.80
2022-08-08T02:34:15.078Z,0.75
2022-08-08T02:37:51.856Z,0.80
2022-08-08T02:40:30.708Z,0.88
2022-08-08T02:44:38.061Z,1.13
2022-08-08T02:49:13.456Z,0.70
2022-08-08T02:52:07.233Z,0.82
2022-08-08T02:55:31.959Z,0.70
2022-08-08T02:58:41.588Z,0.90
2022-08-08T03:01:17.134Z,0.80
2022-08-08T03:05:04.389Z,0.93
2022-08-08T03:07:41.667Z,0.90
2022-08-08T03:11:01.205Z,1.00
2022-08-08T03:15:57.080Z,0.90
2022-08-08T03:17:20.276Z,0.98
2022-08-08T03:20:11.548Z,0.93
2022-08-08T03:22:56.099Z,1.05
2022-08-08T03:25:35.798Z,0.95
2022-08-08T03:28:19.027Z,0.70
2022-08-08T03:30:48.781Z,1.00
2022-08-08T03:33:54.700Z,1.05
2022-08-08T03:36:10.513Z,0.98
2022-08-08T03:38:57.695Z,0.80
2022-08-08T03:42:27.393Z,1.05
2022-08-08T03:44:25.370Z,1.00
2022-08-08T03:46:52.607Z,1.10
2022-08-08T03:49:57.185Z,1.20
2022-08-08T03:52:13.197Z,1.50
2022-08-08T03:55:02.035Z,1.50
2022-08-08T03:58:32.371Z,1.10
2022-08-08T04:00:17.322Z,1.60
2022-08-08T04:02:57.104Z,1.02
2022-08-08T04:05:31.666Z,1.10
2022-08-08T04:08:00.555Z,1.23
2022-08-08T04:10:32.365Z,0.98
2022-08-08T04:13:17.086Z,1.02
2022-08-08T04:16:03.831Z,0.82
2022-08-08T04:18:32.245Z,0.82
2022-08-08T04:20:59.313Z,1.00
2022-08-08T04:24:04.674Z,1.10
2022-08-08T04:26:14.164Z,3.25
2022-08-08T04:28:41.830Z,1.50
2022-08-08T04:31:09.387Z,0.95
2022-08-08T04:33:41.590Z,1.00
2022-08-08T04:36:08.780Z,1.20
2022-08-08T04:38:35.454Z,1.13
2022-08-08T04:41:02.231Z,1.45
2022-08-08T04:43:31.578Z,1.70
2022-08-08T04:46:11.932Z,2.00
2022-08-08T04:48:41.247Z,1.80
2022-08-08T04:51:09.229Z,1.33
2022-08-08T04:54:36.182Z,1.23
2022-08-08T04:56:22.806Z,1.63
2022-08-08T04:58:50.528Z,1.20
2022-08-08T05:01:17.694Z,0.90
2022-08-08T05:04:10.456Z,1.00
2022-08-08T05:06:31.461Z,1.00
2022-08-08T05:09:02.159Z,1.20
2022-08-08T05:11:30.328Z,1.35
2022-08-08T05:14:07.198Z,1.30
2022-08-08T05:16:50.860Z,3.15
2022-08-08T05:20:11.997Z,1.05
2022-08-08T05:22:10.521Z,1.00
2022-08-08T05:24:37.789Z,1.00
2022-08-08T05:27:05.718Z,1.00
2022-08-08T05:29:36.033Z,1.25
2022-08-08T05:32:06.499Z,1.30
2022-08-08T05:34:41.919Z,2.05
2022-08-08T05:37:18.888Z,1.10
2022-08-08T05:39:53.734Z,1.50
2022-08-08T05:42:29.361Z,2.15
2022-08-08T05:44:57.390Z,1.90
2022-08-08T05:47:41.762Z,1.30
2022-08-08T05:50:14.156Z,1.00
2022-08-08T05:52:44.005Z,1.20
2022-08-08T05:55:10.786Z,1.00
2022-08-08T05:58:04.760Z,1.17
2022-08-08T06:00:34.113Z,0.98
2022-08-08T06:03:10.757Z,0.95
2022-08-08T06:06:06.700Z,1.02
2022-08-08T06:11:04.824Z,1.10
2022-08-08T06:13:36.072Z,1.17
2022-08-08T06:16:14.518Z,0.80
2022-08-08T06:18:41.805Z,0.95
2022-08-08T06:21:11.655Z,0.85
2022-08-08T06:24:03.412Z,1.38
2022-08-08T06:26:43.744Z,1.10
2022-08-08T06:29:49.177Z,1.00
2022-08-08T06:32:11.145Z,0.70
2022-08-08T06:34:42.965Z,1.00
2022-08-08T06:37:24.508Z,0.70
2022-08-08T06:39:55.943Z,0.70
2022-08-08T06:42:23.715Z,0.50
2022-08-08T06:44:51.270Z,0.70
2022-08-08T06:47:33.366Z,0.70
2022-08-08T06:50:01.131Z,0.80
2022-08-08T06:52:31.438Z,0.85
2022-08-08T06:54:59.651Z,0.60
2022-08-08T06:57:29.326Z,0.60
2022-08-08T07:00:12.791Z,0.93
2022-08-08T07:02:45.386Z,0.70
2022-08-08T07:05:20.469Z,0.90
2022-08-08T07:08:10.579Z,0.77
2022-08-08T07:10:42.059Z,0.75
2022-08-08T07:13:14.988Z,0.68
2022-08-08T07:16:04.549Z,0.67
2022-08-08T07:18:49.482Z,0.73
2022-08-08T07:21:19.101Z,0.82
2022-08-08T07:24:01.935Z,0.63
2022-08-08T07:26:35.184Z,0.73
2022-08-08T07:29:05.623Z,0.68
2022-08-08T07:31:36.063Z,0.60
2022-08-08T07:34:04.004Z,0.50
2022-08-08T07:36:36.452Z,0.50
2022-08-08T07:39:04.130Z,0.63
2022-08-08T07:41:37.553Z,0.80
2022-08-08T07:44:37.263Z,0.50
2022-08-08T07:47:06.338Z,0.60
2022-08-08T07:49:34.719Z,0.60
2022-08-08T07:52:01.875Z,0.63
2022-08-08T07:54:33.311Z,0.60
2022-08-08T07:57:08.982Z,0.50
2022-08-08T07:59:38.371Z,0.73
2022-08-08T08:09:07.244Z,0.63
2022-08-08T08:11:51.132Z,0.55
2022-08-08T08:14:22.618Z,0.60
2022-08-08T08:16:50.804Z,0.73
2022-08-08T08:19:18.275Z,0.60
2022-08-08T08:21:57.223Z,0.60
2022-08-08T08:24:30.762Z,0.50
2022-08-08T08:26:59.414Z,0.50
2022-08-08T08:29:28.459Z,0.90
2022-08-08T08:31:58.220Z,0.70
2022-08-08T08:34:32.449Z,0.57
2022-08-08T08:37:00.693Z,0.85
2022-08-08T08:39:59.901Z,0.63
2022-08-08T08:42:31.408Z,0.55
2022-08-08T08:45:21.640Z,0.95
2022-08-08T08:47:53.115Z,0.80
2022-08-08T08:50:33.744Z,0.80
2022-08-08T08:53:55.168Z,1.30
2022-08-08T08:56:02.119Z,0.70
2022-08-08T08:58:29.900Z,0.90
2022-08-08T09:01:08.688Z,0.80
2022-08-08T09:03:47.779Z,0.47
2022-08-08T09:06:33.142Z,0.50
2022-08-08T09:09:26.259Z,0.55
2022-08-08T09:12:02.114Z,0.60
2022-08-08T09:14:35.078Z,0.50
2022-08-08T09:17:07.087Z,0.63
2022-08-08T09:21:59.984Z,0.80
2022-08-08T09:22:27.207Z,0.85
2022-08-08T09:24:55.097Z,0.55
2022-08-08T09:27:23.189Z,0.28
2022-08-08T09:30:17.474Z,0.55
2022-08-08T09:33:12.574Z,0.85
2022-08-08T09:35:37.954Z,0.50
2022-08-08T09:38:05.857Z,0.50
2022-08-08T09:40:43.837Z,0.40
2022-08-08T09:43:24.146Z,0.40
2022-08-08T09:46:07.624Z,0.57
2022-08-08T09:48:42.642Z,0.60
2022-08-08T09:51:09.826Z,0.63
2022-08-08T09:53:59.188Z,0.40
2022-08-08T09:56:27.691Z,0.40
2022-08-08T09:58:58.394Z,0.32
2022-08-08T10:01:59.001Z,0.40
2022-08-08T10:04:38.549Z,0.55
2022-08-08T10:07:07.439Z,0.50
2022-08-08T10:09:41.443Z,0.50
2022-08-08T10:12:35.954Z,0.30
2022-08-08T10:15:17.607Z,0.45
2022-08-08T10:18:08.530Z,0.40
2022-08-08T10:20:51.276Z,0.40
2022-08-08T10:23:49.621Z,0.50
2022-08-08T10:26:30.277Z,0.98
2022-08-08T10:29:05.726Z,0.65
2022-08-08T10:31:52.174Z,0.55
2022-08-08T10:36:49.376Z,0.55
2022-08-08T10:39:31.639Z,0.73
2022-08-08T10:42:15.279Z,0.70
2022-08-08T10:44:43.643Z,0.40
2022-08-08T10:47:20.782Z,0.50
2022-08-08T10:50:01.639Z,0.40
2022-08-08T10:52:30.873Z,0.38
2022-08-08T10:55:06.190Z,0.82
2022-08-08T10:57:45.038Z,0.38
2022-08-08T11:00:21.686Z,0.30
2022-08-08T11:02:50.180Z,0.50
2022-08-08T11:05:17.746Z,0.45
2022-08-08T11:08:36.875Z,0.40
2022-08-08T11:10:36.317Z,0.47
2022-08-08T11:15:53.113Z,0.68
2022-08-08T11:18:27.658Z,0.40
2022-08-08T11:20:57.527Z,0.40
2022-08-08T11:23:31.303Z,0.22
2022-08-08T11:26:00.042Z,0.40
2022-08-08T11:28:29.126Z,0.60
2022-08-08T11:30:59.794Z,0.60
2022-08-08T11:33:51.444Z,0.40
2022-08-08T11:36:15.029Z,0.40
2022-08-08T11:38:55.476Z,1.10
2022-08-08T11:41:27.968Z,0.80
2022-08-08T11:44:00.910Z,0.47
2022-08-08T11:46:31.489Z,0.95
2022-08-08T11:48:59.686Z,0.30
2022-08-08T11:51:39.256Z,0.50
2022-08-08T11:54:31.749Z,0.52
2022-08-08T11:57:35.086Z,0.60
2022-08-08T12:00:05.993Z,0.47
2022-08-08T12:02:34.220Z,0.40
2022-08-08T12:05:06.623Z,0.40
2022-08-08T12:07:53.860Z,0.57
2022-08-08T12:10:23.825Z,0.60
2022-08-08T12:12:51.664Z,0.40
2022-08-08T12:15:28.716Z,0.40
2022-08-08T12:17:55.877Z,0.28
2022-08-08T12:20:23.297Z,0.30
2022-08-08T12:22:53.171Z,0.57
2022-08-08T12:25:31.071Z,0.60
2022-08-08T12:28:15.592Z,0.40
2022-08-08T12:30:47.849Z,0.38
2022-08-08T12:33:18.608Z,0.60
2022-08-08T12:35:52.349Z,0.50
2022-08-08T12:38:20.029Z,0.47
2022-08-08T12:41:10.540Z,0.40
2022-08-08T12:43:59.890Z,0.40
2022-08-08T12:46:28.798Z,0.50
2022-08-08T12:51:49.943Z,0.43
2022-08-08T12:54:28.198Z,0.60
2022-08-08T12:56:55.771Z,0.40
2022-08-08T12:59:45.253Z,0.55
2022-08-08T13:02:22.552Z,0.40
2022-08-08T13:04:55.818Z,0.50
2022-08-08T13:08:03.539Z,0.50
2022-08-08T13:10:36.224Z,0.57
2022-08-08T13:15:35.191Z,0.70
2022-08-08T13:18:11.027Z,0.43
2022-08-08T13:20:44.602Z,0.40
2022-08-08T13:23:36.885Z,0.40
2022-08-08T13:26:13.172Z,0.40
2022-08-08T13:28:42.628Z,0.40
2022-08-08T13:31:12.780Z,0.50
2022-08-08T13:33:45.763Z,0.50
2022-08-08T13:36:14.533Z,0.60
2022-08-08T13:38:44.337Z,0.70
2022-08-08T13:41:16.559Z,0.68
2022-08-08T13:43:45.214Z,0.60
2022-08-08T13:46:26.925Z,0.65
2022-08-08T13:49:12.025Z,0.40
2022-08-08T13:52:35.782Z,0.60
2022-08-08T13:55:00.577Z,0.57
2022-08-08T13:58:07.038Z,0.50
2022-08-08T14:00:21.160Z,0.68
2022-08-08T14:02:59.677Z,0.50
2022-08-08T14:05:34.250Z,0.50
2022-08-08T14:08:06.421Z,0.40
2022-08-08T14:10:43.583Z,0.43
2022-08-08T14:13:30.494Z,0.60
2022-08-08T14:16:04.048Z,0.60
2022-08-08T14:18:36.531Z,0.40
2022-08-08T14:21:20.866Z,0.47
2022-08-08T14:24:07.015Z,0.60
2022-08-08T14:26:42.563Z,0.40
2022-08-08T14:29:28.866Z,0.32
2022-08-08T14:32:08.734Z,0.50
2022-08-08T14:34:38.192Z,0.63
2022-08-08T14:37:08.233Z,0.40
2022-08-08T14:39:48.515Z,0.52
2022-08-08T14:42:16.667Z,0.60
2022-08-08T14:44:53.590Z,0.60
2022-08-08T14:47:21.752Z,1.15
2022-08-08T14:50:02.575Z,0.75
2022-08-08T14:52:40.101Z,0.63
2022-08-08T14:55:10.463Z,0.60
2022-08-08T14:58:02.890Z,0.55
2022-08-08T15:00:28.126Z,0.68
2022-08-08T15:03:15.152Z,0.50
2022-08-08T15:05:54.335Z,1.00
2022-08-08T15:08:35.432Z,0.55
2022-08-08T15:13:40.288Z,0.52
2022-08-08T15:16:20.765Z,0.60
2022-08-08T15:18:51.360Z,0.77
2022-08-08T15:21:18.816Z,0.32
2022-08-08T15:23:51.279Z,0.55
2022-08-08T15:26:20.289Z,0.40
2022-08-08T15:28:53.208Z,0.55
2022-08-08T15:31:56.339Z,0.50
2022-08-08T15:34:18.739Z,0.40
2022-08-08T15:36:55.498Z,0.90
2022-08-08T15:39:22.642Z,1.95
2022-08-08T15:41:51.227Z,1.27
2022-08-08T15:44:18.467Z,0.40
2022-08-08T15:46:50.782Z,0.60
2022-08-08T15:49:20.764Z,0.40
2022-08-08T15:51:54.862Z,0.50
2022-08-08T15:54:38.733Z,0.40
2022-08-08T15:57:08.854Z,0.50
2022-08-08T16:00:06.325Z,0.60
2022-08-08T16:02:31.024Z,0.50
2022-08-08T16:04:59.078Z,0.90
2022-08-08T16:07:51.630Z,0.50
2022-08-08T16:13:05.465Z,0.57
2022-08-08T16:13:27.272Z,0.60
2022-08-08T16:15:58.754Z,0.70
2022-08-08T16:18:27.574Z,0.40
2022-08-08T16:21:00.688Z,1.23
2022-08-08T16:23:32.329Z,1.00
2022-08-08T16:26:04.034Z,2.53
2022-08-08T16:28:35.592Z,1.00
2022-08-08T16:31:07.679Z,0.98
2022-08-08T16:33:39.448Z,0.80
2022-08-08T16:36:15.724Z,1.00
2022-08-08T16:38:47.605Z,0.50
2022-08-08T16:41:21.154Z,0.65
2022-08-08T16:43:51.884Z,0.70
2022-08-08T16:46:37.221Z,0.70
2022-08-08T16:49:08.057Z,0.70
2022-08-08T16:55:00.275Z,1.23
2022-08-08T16:55:01.842Z,0.50
2022-08-08T16:57:27.967Z,1.63
2022-08-08T17:00:04.361Z,0.93
2022-08-08T17:02:44.610Z,0.57
2022-08-08T17:05:13.763Z,1.10
2022-08-08T17:07:41.731Z,0.85
2022-08-08T17:10:19.114Z,0.60
2022-08-08T17:12:52.676Z,0.60
2022-08-08T17:15:22.831Z,0.60
2022-08-08T17:18:03.295Z,0.80
2022-08-08T17:20:39.699Z,0.73
2022-08-08T17:23:18.430Z,0.93
2022-08-08T17:25:55.455Z,0.70
2022-08-08T17:28:34.299Z,0.77
2022-08-08T17:34:35.178Z,0.80
2022-08-08T17:36:29.362Z,0.75
2022-08-08T17:39:05.475Z,0.77
2022-08-08T17:41:48.581Z,0.70
2022-08-08T17:44:26.988Z,0.75
2022-08-08T17:46:55.463Z,0.82
2022-08-08T17:49:24.941Z,2.28
2022-08-08T17:51:55.912Z,0.73
2022-08-08T17:54:29.055Z,0.60
2022-08-08T17:56:56.509Z,0.60
2022-08-08T17:59:30.512Z,0.70
2022-08-08T18:02:03.968Z,0.63
2022-08-08T18:04:32.817Z,0.82
2022-08-08T18:07:04.332Z,0.98
2022-08-08T18:09:51.404Z,0.77
2022-08-08T18:12:18.720Z,2.53
2022-08-08T18:14:48.970Z,1.85
2022-08-08T18:17:28.484Z,1.98
2022-08-08T18:20:36.884Z,1.40
2022-08-08T18:22:53.900Z,1.00
2022-08-08T18:25:21.630Z,0.77
2022-08-08T18:27:49.466Z,0.95
2022-08-08T18:30:16.531Z,0.77
2022-08-08T18:32:43.702Z,1.02
2022-08-08T18:35:15.803Z,0.75
2022-08-08T18:37:48.436Z,0.80
2022-08-08T18:40:15.885Z,0.65
2022-08-08T18:42:45.804Z,0.90
2022-08-08T18:46:00.883Z,0.95
2022-08-08T18:48:07.791Z,1.10
2022-08-08T18:50:39.764Z,0.90
2022-08-08T18:53:17.329Z,0.70
2022-08-08T18:55:47.577Z,1.10
2022-08-08T18:58:14.933Z,0.70
2022-08-08T19:00:46.427Z,0.70
2022-08-08T19:03:13.808Z,0.90
2022-08-08T19:05:46.498Z,0.73
2022-08-08T19:08:24.708Z,0.70
2022-08-08T19:10:55.821Z,0.85
2022-08-08T19:13:24.450Z,0.90
2022-08-08T19:15:55.779Z,0.70
2022-08-08T19:18:31.878Z,0.77
2022-08-08T19:21:02.833Z,1.10
2022-08-08T19:23:29.886Z,1.30
2022-08-08T19:26:19.953Z,1.00
2022-08-08T19:28:49.743Z,1.10
2022-08-08T19:31:17.146Z,1.52
2022-08-08T19:34:04.210Z,0.90
2022-08-08T19:36:31.716Z,0.82
2022-08-08T19:38:59.534Z,1.13
2022-08-08T19:41:29.991Z,1.10
2022-08-08T19:44:03.052Z,0.90
2022-08-08T19:46:33.562Z,1.23
2022-08-08T19:49:00.891Z,1.25
2022-08-08T19:51:34.768Z,1.00
2022-08-08T19:54:06.725Z,0.70
2022-08-08T19:56:40.398Z,0.88
2022-08-08T19:59:12.756Z,1.27
2022-08-08T20:02:01.041Z,1.17
2022-08-08T20:04:27.933Z,1.08
2022-08-08T20:06:56.884Z,1.10
2022-08-08T20:09:25.051Z,1.20
2022-08-08T20:11:52.227Z,1.00
2022-08-08T20:14:35.505Z,1.35
2022-08-08T20:17:03.673Z,1.45
2022-08-08T20:19:34.760Z,1.42
2022-08-08T20:22:20.580Z,2.00
2022-08-08T20:24:53.600Z,1.88
2022-08-08T20:27:21.098Z,1.60
2022-08-08T20:30:00.270Z,1.92
2022-08-08T20:32:29.457Z,1.40
2022-08-08T20:35:01.168Z,2.05
2022-08-08T20:37:46.865Z,2.10
2022-08-08T20:40:16.545Z,1.98
2022-08-08T20:42:54.038Z,1.95
2022-08-08T20:45:54.382Z,1.65
2022-08-08T20:48:08.220Z,1.83
2022-08-08T20:50:35.483Z,1.98
2022-08-08T20:53:03.912Z,2.05
2022-08-08T20:55:42.602Z,2.00
2022-08-08T20:58:14.011Z,2.05
2022-08-08T21:00:49.987Z,1.92
2022-08-08T21:03:16.764Z,2.15
2022-08-08T21:05:49.395Z,2.00
2022-08-08T21:08:36.531Z,1.90
2022-08-08T21:11:12.074Z,2.17
2022-08-08T21:13:41.162Z,2.25
2022-08-08T21:16:20.701Z,2.35
2022-08-08T21:18:57.636Z,2.35
2022-08-08T21:24:19.215Z,2.45
2022-08-08T21:26:53.768Z,1.90
2022-08-08T21:29:21.650Z,2.03
2022-08-08T21:31:57.616Z,1.80
2022-08-08T21:34:29.958Z,1.92
2022-08-08T21:36:58.323Z,2.38
2022-08-08T21:39:41.519Z,2.00
2022-08-08T21:42:11.925Z,2.10
2022-08-08T21:44:38.643Z,2.03
2022-08-08T21:48:00.210Z,2.20
2022-08-08T21:50:12.138Z,2.08
2022-08-08T21:54:31.739Z,2.00
2022-08-08T21:56:19.031Z,1.80
2022-08-08T21:58:13.608Z,2.20
2022-08-08T22:00:41.118Z,1.73
2022-08-08T22:03:07.880Z,1.95
2022-08-08T22:05:41.441Z,2.08
2022-08-08T22:08:08.495Z,2.00
2022-08-08T22:10:35.543Z,2.15
2022-08-08T22:13:17.081Z,1.80
2022-08-08T22:15:58.408Z,1.90
2022-08-08T22:20:54.784Z,1.90
2022-08-08T22:23:21.500Z,2.35
2022-08-08T22:26:26.812Z,1.90
2022-08-08T22:29:14.593Z,2.13
2022-08-08T22:31:25.819Z,2.35
2022-08-08T22:34:13.364Z,2.38
2022-08-08T22:36:42.623Z,2.00
2022-08-08T22:39:18.847Z,1.90
2022-08-08T22:41:46.643Z,1.83
2022-08-08T22:44:16.477Z,2.17
2022-08-08T22:46:45.697Z,2.00
2022-08-08T22:49:19.937Z,2.00
2022-08-08T22:51:47.487Z,2.13
2022-08-08T22:54:33.193Z,2.45
2022-08-08T22:57:11.327Z,2.03
2022-08-08T22:59:48.307Z,1.70
2022-08-08T23:02:28.433Z,2.05
2022-08-08T23:04:58.479Z,1.90
2022-08-08T23:07:52.179Z,2.05
2022-08-08T23:10:21.029Z,2.08
2022-08-08T23:12:48.576Z,2.10
2022-08-08T23:18:07.704Z,2.17
2022-08-08T23:20:34.443Z,2.33
2022-08-08T23:23:01.117Z,2.05
2022-08-08T23:25:27.794Z,2.00
2022-08-08T23:27:54.867Z,2.38
2022-08-08T23:30:22.613Z,2.60
2022-08-08T23:32:50.565Z,2.33
2022-08-08T23:35:18.699Z,1.85
2022-08-08T23:38:02.014Z,2.70
2022-08-08T23:40:30.704Z,3.03
2022-08-08T23:42:57.528Z,2.50
2022-08-08T23:49:01.114Z,2.33
2022-08-08T23:49:03.469Z,2.60
2022-08-08T23:50:58.028Z,2.40
2022-08-08T23:54:04.848Z,2.20
2022-08-08T23:56:12.101Z,2.40
2022-08-08T23:58:39.004Z,2.17
